Flight Track Log - Related Links

Times and Time Zones

All times are in EDT time to prevent confusion due to time zone crossing. See the SWA1046 flight status page for this flight to view local times or setup timezone preferences in your user account.

Time Position Orientation Groundspeed Altitude Reporting Facility
EDT Latitude Longitude Course Direction KTS MPH feet Rate Location/Type
Sun 07:55:12 AM 42.7278 -73.8081 179° South 150 173 1,400  Level Boston Center
Sun 07:55:54 AM 42.6944 -73.8072 179° South 176 203 2,600 1,776 Climbing Boston Center
Sun 07:56:50 AM 42.6853 -73.8664 258° West 234 269 4,300 2,534 Climbing Boston Center
Sun 07:57:50 AM 42.6675 -73.9536 255° West 244 281 7,500 3,150 Climbing Boston Center
Sun 07:58:50 AM 42.6494 -74.0464 255° West 244 281 10,600 3,550 Climbing Boston Center
Sun 07:59:50 AM 42.6292 -74.1558 256° West 264 304 14,600 3,250 Climbing Boston Center
Sun 08:00:50 AM 42.5864 -74.2253 230° Southwest 270 311 17,100 1,650 Climbing Boston Center
Sun 08:01:50 AM 42.5061 -74.1692 153° Southeast 234 269 17,900 1,700 Climbing Boston Center
Sun 08:02:50 AM 42.4428 -74.0803 134° Southeast 267 307 20,500 2,550 Climbing Boston Center
Sun 08:03:50 AM 42.3692 -73.9800 135° Southeast 332 382 23,000 2,350 Climbing Boston Center
Sun 08:04:50 AM 42.2869 -73.8853 140° Southeast 369 425 25,200 1,950 Climbing Boston Center
Sun 08:05:50 AM 42.1636 -73.9078 188° South 381 438 26,900 1,650 Climbing Boston Center
Sun 08:06:50 AM 42.0400 -73.9636 199° South 417 480 28,500 1,600 Climbing Boston Center
Sun 08:07:50 AM 41.9119 -74.0247 200° South 458 527 30,100 1,789 Climbing Boston Center
Sun 08:09:31 AM 41.6825 -74.1208 197° South 509 586 33,300 1,950 Climbing New York Center
Sun 08:10:30 AM 41.5583 -74.1728 197° South 493 567 35,300 1,350 Climbing New York Center
Sun 08:11:31 AM 41.4336 -74.2300 199° South 479 551 36,000 350 Climbing New York Center
Sun 08:12:30 AM 41.3367 -74.2719 198° South 468 539 36,000  Level New York Center
Sun 08:13:31 AM 41.1956 -74.3253 196° South 474 545 36,000  Level New York Center
Sun 08:14:29 AM 41.0733 -74.3767 198° South 468 539 36,000  Level New York Center
Sun 08:15:30 AM 40.9508 -74.4306 198° South 468 539 36,000  Level New York Center
Sun 08:16:30 AM 40.8261 -74.4814 197° South 468 539 36,000  Level New York Center
Sun 08:17:32 AM 40.7058 -74.5350 199° South 468 539 36,000  Level New York Center
Sun 08:18:32 AM 40.5811 -74.5883 198° South 468 539 36,000  Level New York Center
Sun 08:20:51 AM 40.2831 -74.7103 197° South 464 534 36,000  Level Washington Center
Sun 08:21:49 AM 40.1628 -74.7608 198° South 464 534 36,000  Level Washington Center
Sun 08:22:50 AM 40.0422 -74.8111 198° South 458 527 36,000  Level Washington Center
Sun 08:23:51 AM 39.9364 -74.8556 198° South 458 527 36,000  Level Washington Center
Sun 08:24:49 AM 39.8053 -74.9081 197° South 458 527 36,000  Level Washington Center
Sun 08:25:51 AM 39.6972 -74.9525 198° South 458 527 36,000  Level Washington Center
Sun 08:26:49 AM 39.5767 -75.0019 198° South 463 533 36,000  Level Washington Center
Sun 08:27:50 AM 39.4603 -75.0458 196° South 457 526 36,000  Level Washington Center
Sun 08:28:50 AM 39.3436 -75.0897 196° South 451 519 36,000 756 Level Washington Center
Sun 08:29:49 AM 39.2250 -75.1414 199° South 451 519 37,500 1,008 Climbing Washington Center
Sun 08:30:49 AM 39.1147 -75.2117 206° Southwest 445 512 38,000 250 Climbing Washington Center
Sun 08:31:49 AM 39.0044 -75.2817 206° Southwest 445 512 38,000  Level Washington Center
Sun 08:32:50 AM 38.8942 -75.3436 204° Southwest 440 506 38,000  Level Washington Center
Sun 08:33:49 AM 38.7858 -75.4106 206° Southwest 440 506 38,000  Level Washington Center
Sun 08:34:50 AM 38.6778 -75.4772 206° Southwest 440 506 38,000  Level Washington Center
Sun 08:35:50 AM 38.5692 -75.5411 205° Southwest 435 501 38,000  Level Washington Center
Sun 08:36:49 AM 38.4608 -75.6050 205° Southwest 435 501 38,000  Level Washington Center
Sun 08:37:49 AM 38.3525 -75.6658 204° Southwest 430 495 38,000  Level Washington Center
Sun 08:38:50 AM 38.2419 -75.7292 204° Southwest 430 495 38,000  Level Washington Center
Sun 08:39:51 AM 38.1314 -75.7897 203° Southwest 435 501 38,000  Level Washington Center
Sun 08:40:51 AM 38.0228 -75.8553 205° Southwest 440 506 38,000  Level Washington Center
Sun 08:41:49 AM 37.9119 -75.9181 204° Southwest 440 506 38,000  Level Washington Center
Sun 08:42:49 AM 37.8033 -75.9808 205° Southwest 435 501 38,000  Level Washington Center
Sun 08:43:50 AM 37.6864 -76.0536 206° Southwest 435 501 38,000  Level Washington Center
Sun 08:44:51 AM 37.5756 -76.1186 205° Southwest 435 501 38,000  Level Washington Center
Sun 08:45:51 AM 37.4753 -76.1675 201° Southwest 435 501 38,000  Level Washington Center
Sun 08:46:51 AM 37.3664 -76.2294 204° Southwest 435 501 38,000  Level Washington Center
Sun 08:47:51 AM 37.2597 -76.2911 205° Southwest 430 495 38,000  Level Washington Center
Sun 08:48:51 AM 37.1508 -76.3528 204° Southwest 430 495 38,000  Level Washington Center
Sun 08:49:49 AM 37.0419 -76.4167 205° Southwest 430 495 38,000  Level Washington Center
Sun 08:50:50 AM 36.9331 -76.4753 203° Southwest 430 495 38,000  Level Washington Center
Sun 08:51:51 AM 36.8200 -76.5286 201° Southwest 435 501 38,000  Level Washington Center
Sun 08:52:49 AM 36.6944 -76.5867 200° South 435 501 38,000  Level Washington Center
Sun 08:53:49 AM 36.5917 -76.6267 197° South 435 501 38,000  Level Washington Center
Sun 08:54:50 AM 36.4767 -76.6742 198° South 435 501 38,000  Level Washington Center
Sun 08:55:50 AM 36.3614 -76.7217 198° South 435 501 38,000  Level Washington Center
Sun 08:56:51 AM 36.2483 -76.7664 198° South 435 501 38,000  Level Washington Center
Sun 08:57:51 AM 36.1353 -76.8136 199° South 430 495 38,000  Level Washington Center
Sun 08:58:50 AM 36.0200 -76.8581 197° South 430 495 38,000  Level Washington Center
Sun 08:59:50 AM 35.9069 -76.9050 199° South 430 495 38,000  Level Washington Center
Sun 09:00:49 AM 35.7958 -76.9492 198° South 430 495 38,000  Level Washington Center
Sun 09:01:49 AM 35.6847 -76.9933 198° South 425 489 38,000  Level Washington Center
Sun 09:02:49 AM 35.5653 -77.0425 199° South 420 483 38,000  Level Washington Center
Sun 09:03:50 AM 35.4519 -77.0889 198° South 425 489 38,000  Level Washington Center
Sun 09:04:51 AM 35.3386 -77.1325 197° South 425 489 38,000  Level Washington Center
Sun 09:05:49 AM 35.2275 -77.1786 199° South 425 489 38,000  Level Washington Center
Sun 09:06:49 AM 35.1183 -77.2222 198° South 425 489 38,000  Level Washington Center
Sun 09:07:50 AM 35.0072 -77.2656 198° South 425 489 38,000  Level Washington Center
Sun 09:08:50 AM 34.8939 -77.3114 198° South 425 489 38,000  Level Washington Center
Sun 09:09:49 AM 34.7972 -77.3525 199° South 425 489 38,000  Level Washington Center
Sun 09:10:49 AM 34.6861 -77.4006 200° South 425 489 38,000  Level Washington Center
Sun 09:11:51 AM 34.5750 -77.4383 196° South 425 489 38,000  Level Washington Center
Sun 09:12:49 AM 34.4656 -77.4864 200° South 425 489 38,000  Level Washington Center
Sun 09:13:49 AM 34.3564 -77.5267 197° South 425 489 38,000  Level Washington Center
Sun 09:15:51 AM 34.1183 -77.6153 197° South 430 495 38,000  Level Jacksonville Center
Sun 09:16:51 AM 34.0075 -77.6622 199° South 416 479 38,000  Level Jacksonville Center
Sun 09:17:51 AM 33.9103 -77.7331 211° Southwest 416 479 38,000  Level Jacksonville Center
Sun 09:18:51 AM 33.8150 -77.8036 212° Southwest 416 479 38,000  Level Jacksonville Center
Sun 09:19:51 AM 33.7200 -77.8789 213° Southwest 422 486 38,000 250 Level Jacksonville Center
Sun 09:20:51 AM 33.6250 -77.9542 213° Southwest 422 486 38,500 500 Climbing Jacksonville Center
Sun 09:21:51 AM 33.5297 -78.0292 213° Southwest 422 486 39,000 250 Climbing Jacksonville Center
Sun 09:22:51 AM 33.4236 -78.0872 205° Southwest 422 486 39,000  Level Jacksonville Center
Sun 09:23:51 AM 33.3122 -78.1256 196° South 417 480 39,000  Level Jacksonville Center
Sun 09:24:51 AM 33.2031 -78.1611 195° South 417 480 39,000  Level Jacksonville Center
Sun 09:25:51 AM 33.0919 -78.2017 197° South 417 480 39,000  Level Jacksonville Center
Sun 09:26:51 AM 32.9786 -78.2425 197° South 418 481 39,000  Level Jacksonville Center
Sun 09:27:51 AM 32.8672 -78.2778 195° South 418 481 39,000  Level Jacksonville Center
Sun 09:28:51 AM 32.7581 -78.3206 198° South 413 475 39,000  Level Jacksonville Center
Sun 09:29:51 AM 32.6489 -78.3556 195° South 413 475 39,000  Level Jacksonville Center
Sun 09:30:51 AM 32.5397 -78.3956 197° South 413 475 39,000 50 Level Jacksonville Center
Sun 09:31:51 AM 32.4306 -78.4353 197° South 413 475 39,100 500 Climbing Jacksonville Center
Sun 09:32:51 AM 32.3256 -78.4775 199° South 408 470 40,000 450 Climbing Jacksonville Center
Sun 09:33:51 AM 32.2142 -78.5147 196° South 408 470 40,000  Level Jacksonville Center
Sun 09:34:51 AM 32.1047 -78.5517 196° South 413 475 40,000  Level Jacksonville Center
Sun 09:35:51 AM 31.9953 -78.5889 196° South 413 475 40,000 -50 Level Jacksonville Center
Sun 09:36:51 AM 31.8881 -78.6281 197° South 413 475 39,900  Descending Jacksonville Center
Sun 09:37:51 AM 31.7808 -78.6647 196° South 413 475 40,000 50 Climbing Jacksonville Center
Sun 09:38:51 AM 31.6714 -78.7064 198° South 413 475 40,000  Level Jacksonville Center
Sun 09:39:51 AM 31.5681 -78.7378 195° South 408 470 40,000  Level Jacksonville Center
Sun 09:40:51 AM 31.4678 -78.7933 205° Southwest 402 463 40,000  Level Jacksonville Center
Sun 09:41:51 AM 31.3672 -78.8489 205° Southwest 402 463 40,000  Level Jacksonville Center
Sun 09:43:00 AM 31.2495 -78.9033 202° Southwest  Level FlightAware Approximate
Sun 09:43:51 AM 31.1681 -78.9547 202° Southwest 397 457 40,000  Level Jacksonville Center
Sun 09:44:51 AM 31.0653 -79.0075 204° Southwest 397 457 40,000  Level Jacksonville Center
Sun 09:45:51 AM 30.9606 -79.0625 204° Southwest 397 457 40,000  Level Jacksonville Center
Sun 09:46:51 AM 30.8597 -79.1175 205° Southwest 397 457 40,000  Level Jacksonville Center
Sun 09:47:51 AM 30.7569 -79.1700 204° Southwest 397 457 40,000  Level Jacksonville Center
Sun 09:48:51 AM 30.6606 -79.2244 206° Southwest 397 457 40,000  Level Jacksonville Center
Sun 09:49:51 AM 30.5764 -79.2783 209° Southwest 398 458 40,000  Level Jacksonville Center
Sun 09:50:34 AM 30.5031 -79.3083 199° South 396 456 40,000  Level Miami Center
Sun 09:51:34 AM 30.4000 -79.3636 205° Southwest 406 467 40,000  Level Miami Center
Sun 09:52:34 AM 30.2969 -79.4139 203° Southwest 406 467 40,000  Level Miami Center
Sun 09:53:34 AM 30.1961 -79.4667 204° Southwest 400 460 40,000  Level Miami Center
Sun 09:54:34 AM 30.0950 -79.5194 204° Southwest 406 467 40,000  Level Miami Center
Sun 09:55:34 AM 30.0003 -79.5697 205° Southwest 397 457 40,000 -50 Level Miami Center
Sun 09:56:34 AM 29.8950 -79.6222 203° Southwest 403 464 39,900 -1,050 Descending Miami Center
Sun 09:57:34 AM 29.8003 -79.6722 205° Southwest 393 452 37,900 -2,000 Descending Miami Center
Sun 09:58:34 AM 29.7011 -79.7247 205° Southwest 388 447 35,900 -2,050 Descending Miami Center
Sun 09:59:34 AM 29.6042 -79.7769 205° Southwest 388 447 33,800 -2,100 Descending Miami Center
Sun 10:00:34 AM 29.5050 -79.8292 205° Southwest 388 447 31,700 -2,050 Descending Miami Center
Sun 10:01:34 AM 29.4081 -79.8767 203° Southwest 388 447 29,700 -2,000 Descending Miami Center
Sun 10:02:34 AM 29.3111 -79.9261 204° Southwest 383 441 27,700 -2,000 Descending Miami Center
Sun 10:03:34 AM 29.2161 -79.9736 204° Southwest 378 435 25,700 -1,950 Descending Miami Center
Sun 10:04:34 AM 29.1297 -80.0233 207° Southwest 372 428 23,800 -1,850 Descending Miami Center
Sun 10:05:34 AM 29.0389 -80.0681 203° Southwest 362 417 22,000 -1,800 Descending Miami Center
Sun 10:06:34 AM 28.9525 -80.1083 202° Southwest 352 405 20,200 -1,800 Descending Miami Center
Sun 10:08:54 AM 28.8667 -80.3167 245° Southwest 294 338 16,000 -1,800 Descending Orlando TRACON
Sun 10:09:54 AM 28.8333 -80.4000 245° Southwest 299 344 14,200 -992 Descending Orlando TRACON
Sun 10:10:55 AM 28.8167 -80.4833 257° West 290 334 14,000 -843 Descending Orlando TRACON
Sun 10:11:55 AM 28.8167 -80.5833 270° West 291 335 12,500 -1,250 Descending Orlando TRACON
Sun 10:12:55 AM 28.8000 -80.6667 257° West 287 330 11,500 -1,000 Descending Orlando TRACON
Sun 10:13:55 AM 28.7833 -80.7667 259° West 287 330 10,500 -750 Descending Orlando TRACON
Sun 10:14:55 AM 28.7667 -80.8500 257° West 279 321 10,000 -250 Descending Orlando TRACON
Sun 10:15:55 AM 28.7333 -80.9333 245° Southwest 279 321 10,000 -150 Level Orlando TRACON
Sun 10:16:55 AM 28.7167 -81.0167 257° West 270 311 9,700 -400 Descending Orlando TRACON
Sun 10:17:55 AM 28.6833 -81.0833 240° Southwest 280 322 9,200 -347 Descending Orlando TRACON
Sun 10:18:56 AM 28.6167 -81.1333 213° Southwest 267 307 9,000 -99 Descending Orlando TRACON
Sun 10:19:56 AM 28.5667 -81.1667 210° Southwest 232 267 9,000 -350 Level Orlando TRACON
Sun 10:20:56 AM 28.5000 -81.1833 192° South 246 283 8,300 -700 Descending Orlando TRACON
Sun 10:21:56 AM 28.4333 -81.1833 180° South 225 259 7,600 -850 Descending Orlando TRACON
Sun 10:22:56 AM 28.3667 -81.1833 180° South 206 237 6,600 -1,200 Descending Orlando TRACON
Sun 10:23:56 AM 28.3167 -81.1833 180° South 207 238 5,200 -1,050 Descending Orlando TRACON
Sun 10:24:56 AM 28.2500 -81.1833 180° South 200 230 4,500 -700 Descending Orlando TRACON
Sun 10:25:56 AM 28.2500 -81.2333 270° West 173 199 3,800 -800 Descending Orlando TRACON
Sun 10:26:56 AM 28.3000 -81.2500 344° North 154 177 2,900 -1,091 Descending Orlando TRACON
Sun 10:27:57 AM 28.3333 -81.2667 336° Northwest 135 155 1,600 -793 Descending Orlando TRACON
Sun 10:28:57 AM 28.3667 -81.2833 336° Northwest 141 162 1,300 -550 Descending Orlando TRACON
Sun 10:29:57 AM 28.4000 -81.2833 360° North 126 145 500 -800 Descending Orlando TRACON

Login

Don't have an account? Register now (free) for customized features, flight alerts, and more!